Time;durP1;ratioP1;P1;durP2;ratioP2;P2;SDS_P1;SDS_P2;PMS_P1;PMS_P2;Temp;Humidity;BMP_temperature;BMP_pressure;BME280_temperature;BME280_humidity;BME280_pressure;Samples;Min_cycle;Max_cycle;Signal;HPM_P1;HPM_P2
2023/12/14 00:00:51;;;;;;;3.92;1.67;;;;;;;;;;5027429;27;92548;-83
2023/12/14 00:03:18;;;;;;;6.28;1.70;;;;;;;;;;5001239;28;92850;-84
2023/12/14 00:05:44;;;;;;;3.92;1.65;;;;;;;;;;5000841;27;92356;-85
2023/12/14 00:08:11;;;;;;;3.90;1.52;;;;;;;;;;5002063;28;92454;-85
2023/12/14 00:10:37;;;;;;;4.28;1.70;;;;;;;;;;5001104;28;93488;-85
2023/12/14 00:13:06;;;;;;;4.05;1.67;;;;;;;;;;5003190;27;92418;-85
2023/12/14 00:15:32;;;;;;;3.80;1.45;;;;;;;;;;5001394;28;92430;-84
2023/12/14 00:17:59;;;;;;;3.75;1.42;;;;;;;;;;5004809;27;95315;-83
2023/12/14 00:20:25;;;;;;;5.25;1.55;;;;;;;;;;5021555;28;97061;-84
2023/12/14 00:22:52;;;;;;;5.05;1.60;;;;;;;;;;5023190;28;93122;-82
2023/12/14 00:25:19;;;;;;;3.75;1.70;;;;;;;;;;5006413;28;92264;-85
2023/12/14 00:27:45;;;;;;;5.30;1.90;;;;;;;;;;5023213;28;92546;-85
2023/12/14 00:30:12;;;;;;;5.78;1.92;;;;;;;;;;5022339;28;92767;-85
2023/12/14 00:32:38;;;;;;;7.53;2.20;;;;;;;;;;5022697;28;97508;-84
2023/12/14 00:35:05;;;;;;;5.82;2.33;;;;;;;;;;5006743;28;95203;-84
2023/12/14 00:37:32;;;;;;;4.85;2.17;;;;;;;;;;5022765;28;93169;-84
2023/12/14 00:39:59;;;;;;;7.28;2.63;;;;;;;;;;5044523;27;93100;-83
2023/12/14 00:42:25;;;;;;;5.70;2.35;;;;;;;;;;5040844;27;97159;-84
2023/12/14 00:44:52;;;;;;;6.40;2.53;;;;;;;;;;5042984;27;92372;-83
2023/12/14 00:47:19;;;;;;;6.78;2.78;;;;;;;;;;5044245;27;92426;-84
2023/12/14 00:49:45;;;;;;;6.97;2.85;;;;;;;;;;5041176;27;94948;-84
2023/12/14 00:52:12;;;;;;;6.13;2.78;;;;;;;;;;5025641;28;92356;-84
2023/12/14 00:54:38;;;;;;;6.45;2.92;;;;;;;;;;5017480;28;95173;-84
2023/12/14 00:57:05;;;;;;;6.68;2.65;;;;;;;;;;5036322;27;92783;-84
2023/12/14 00:59:31;;;;;;;6.85;2.78;;;;;;;;;;5026284;28;91394;-83
2023/12/14 01:01:58;;;;;;;5.70;2.50;;;;;;;;;;5018416;28;95391;-84
2023/12/14 01:04:26;;;;;;;5.50;2.50;;;;;;;;;;5002133;28;92196;-84
2023/12/14 01:06:53;;;;;;;5.47;2.30;;;;;;;;;;5011213;28;94680;-83
2023/12/14 01:09:19;;;;;;;6.30;2.58;;;;;;;;;;5021586;28;95755;-83
2023/12/14 01:11:46;;;;;;;5.15;2.45;;;;;;;;;;5022320;27;92671;-84
2023/12/14 01:14:12;;;;;;;4.78;2.40;;;;;;;;;;5021668;27;92641;-83
2023/12/14 01:16:39;;;;;;;5.50;2.22;;;;;;;;;;5023161;28;93089;-84
2023/12/14 01:19:05;;;;;;;5.35;2.53;;;;;;;;;;5022333;27;92556;-84
2023/12/14 01:21:32;;;;;;;5.55;2.47;;;;;;;;;;5026054;27;92401;-84
2023/12/14 01:24:00;;;;;;;6.00;2.42;;;;;;;;;;5021477;27;91961;-85
2023/12/14 01:26:27;;;;;;;6.68;2.65;;;;;;;;;;5023180;27;92187;-83
2023/12/14 01:28:54;;;;;;;6.38;2.40;;;;;;;;;;5022932;27;93170;-85
2023/12/14 01:31:24;;;;;;;6.05;2.60;;;;;;;;;;5028233;27;94612;-84
2023/12/14 01:33:50;;;;;;;3.97;2.20;;;;;;;;;;5022776;27;97450;-83
2023/12/14 01:36:24;;;;;;;5.43;2.53;;;;;;;;;;5022943;28;92456;-83
2023/12/14 01:38:51;;;;;;;6.45;2.50;;;;;;;;;;5033870;27;92464;-84
2023/12/14 01:41:18;;;;;;;5.65;2.55;;;;;;;;;;5042850;27;92586;-84
2023/12/14 01:43:44;;;;;;;5.43;2.35;;;;;;;;;;5027787;27;95484;-85
2023/12/14 01:46:11;;;;;;;5.75;2.50;;;;;;;;;;5025286;28;94805;-84
2023/12/14 01:48:38;;;;;;;5.93;2.60;;;;;;;;;;5042242;27;91325;-84
2023/12/14 01:51:04;;;;;;;5.60;2.40;;;;;;;;;;5043755;27;92064;-84
2023/12/14 01:53:31;;;;;;;5.55;2.63;;;;;;;;;;5024950;28;95483;-84
2023/12/14 01:55:57;;;;;;;5.90;2.55;;;;;;;;;;5039904;27;95113;-82
2023/12/14 01:58:26;;;;;;;5.75;2.60;;;;;;;;;;5041410;27;92175;-81
2023/12/14 02:00:58;;;;;;;5.30;2.50;;;;;;;;;;5012110;28;94908;-81
2023/12/14 02:03:25;;;;;;;6.13;2.55;;;;;;;;;;5021846;28;93112;-82
2023/12/14 02:05:51;;;;;;;5.20;2.38;;;;;;;;;;5040982;27;92255;-82
2023/12/14 02:08:18;;;;;;;5.30;2.60;;;;;;;;;;5042729;27;95688;-82
2023/12/14 02:10:45;;;;;;;5.43;2.45;;;;;;;;;;5032031;28;92717;-82
2023/12/14 02:13:11;;;;;;;5.97;2.67;;;;;;;;;;5035680;27;92411;-82
2023/12/14 02:15:38;;;;;;;5.25;2.50;;;;;;;;;;5024404;28;95100;-82
2023/12/14 02:18:05;;;;;;;5.70;2.50;;;;;;;;;;5054693;27;92556;-83
2023/12/14 02:20:31;;;;;;;5.60;2.40;;;;;;;;;;5006039;28;95186;-82
2023/12/14 02:22:58;;;;;;;6.75;3.15;;;;;;;;;;5028663;28;95600;-81
2023/12/14 02:25:25;;;;;;;5.63;2.58;;;;;;;;;;5022278;28;92120;-82
2023/12/14 02:27:53;;;;;;;5.15;2.50;;;;;;;;;;5022711;28;92815;-83
2023/12/14 02:30:20;;;;;;;5.53;2.50;;;;;;;;;;5021042;28;92325;-83
2023/12/14 02:32:46;;;;;;;6.78;2.70;;;;;;;;;;5020420;28;94994;-83
2023/12/14 02:35:13;;;;;;;7.38;3.10;;;;;;;;;;5020453;28;93030;-83
2023/12/14 02:37:43;;;;;;;7.07;2.75;;;;;;;;;;5021295;28;91487;-83
2023/12/14 02:40:10;;;;;;;4.88;2.40;;;;;;;;;;5020483;28;92530;-84
2023/12/14 02:42:37;;;;;;;6.25;2.35;;;;;;;;;;5021863;27;92756;-83
2023/12/14 02:45:04;;;;;;;5.80;2.80;;;;;;;;;;5020409;27;94765;-84
2023/12/14 02:47:31;;;;;;;5.25;2.30;;;;;;;;;;5024007;28;94886;-83
2023/12/14 02:49:57;;;;;;;6.72;2.50;;;;;;;;;;5019179;28;92439;-83
2023/12/14 02:52:24;;;;;;;6.32;2.65;;;;;;;;;;5022589;27;92515;-83
2023/12/14 02:54:51;;;;;;;4.50;2.25;;;;;;;;;;5004098;28;95504;-83
2023/12/14 02:57:17;;;;;;;5.13;2.42;;;;;;;;;;5020813;28;92370;-84
2023/12/14 02:59:44;;;;;;;5.57;2.50;;;;;;;;;;5016834;28;92011;-84
2023/12/14 03:02:11;;;;;;;6.18;2.40;;;;;;;;;;5002190;28;92231;-84
2023/12/14 03:04:38;;;;;;;4.50;2.20;;;;;;;;;;5017124;28;92357;-83
2023/12/14 03:07:05;;;;;;;4.63;2.28;;;;;;;;;;5017530;28;92329;-84
2023/12/14 03:09:32;;;;;;;5.07;2.40;;;;;;;;;;5001534;28;97638;-83
2023/12/14 03:12:00;;;;;;;4.95;2.25;;;;;;;;;;5000180;28;97430;-84
2023/12/14 03:14:26;;;;;;;;;;;;;;;;;;5018274;28;95384;-82
2023/12/14 03:16:53;;;;;;;5.22;2.45;;;;;;;;;;5021318;28;92296;-82
2023/12/14 03:19:20;;;;;;;6.07;2.80;;;;;;;;;;5005196;28;92799;-82
2023/12/14 03:21:46;;;;;;;5.97;2.90;;;;;;;;;;5003104;28;93163;-82
2023/12/14 03:24:13;;;;;;;7.82;2.60;;;;;;;;;;5019598;28;92055;-82
2023/12/14 03:26:40;;;;;;;6.55;2.60;;;;;;;;;;5003641;28;94219;-81
2023/12/14 03:29:07;;;;;;;;;;;;;;;;;;5012352;28;92857;-82
2023/12/14 03:31:35;;;;;;;6.03;2.40;;;;;;;;;;5007644;28;92567;-81
2023/12/14 03:34:02;;;;;;;4.45;2.15;;;;;;;;;;5023869;28;97584;-81
2023/12/14 03:36:29;;;;;;;4.40;2.33;;;;;;;;;;5047284;27;92777;-81
2023/12/14 03:38:55;;;;;;;5.07;2.30;;;;;;;;;;5044696;27;92867;-81
2023/12/14 03:41:22;;;;;;;4.53;2.33;;;;;;;;;;5043578;27;95079;-82
2023/12/14 03:43:48;;;;;;;5.18;2.60;;;;;;;;;;5043140;27;92171;-82
2023/12/14 03:46:15;;;;;;;6.57;2.70;;;;;;;;;;5043786;27;95134;-82
2023/12/14 03:48:42;;;;;;;4.63;2.03;;;;;;;;;;5043102;27;95309;-84
2023/12/14 03:51:08;;;;;;;5.32;2.42;;;;;;;;;;5044318;27;91648;-83
2023/12/14 03:53:35;;;;;;;5.57;2.60;;;;;;;;;;5047821;27;92167;-83
2023/12/14 03:56:03;;;;;;;6.70;2.65;;;;;;;;;;5025502;27;92262;-83
2023/12/14 03:58:29;;;;;;;6.75;2.80;;;;;;;;;;5025760;28;95143;-83
2023/12/14 04:00:56;;;;;;;6.25;2.65;;;;;;;;;;5029241;27;92826;-83
2023/12/14 04:03:23;;;;;;;6.00;2.78;;;;;;;;;;5003264;28;92248;-84
2023/12/14 04:05:49;;;;;;;7.07;2.42;;;;;;;;;;5036109;28;94985;-84
2023/12/14 04:08:16;;;;;;;5.40;2.42;;;;;;;;;;5019846;28;95333;-84
2023/12/14 04:10:43;;;;;;;7.63;2.80;;;;;;;;;;5019179;28;92466;-82
2023/12/14 04:13:09;;;;;;;5.93;2.75;;;;;;;;;;5003476;28;95211;-83
2023/12/14 04:15:36;;;;;;;6.57;2.50;;;;;;;;;;5008175;28;91897;-84
2023/12/14 04:18:02;;;;;;;5.30;2.65;;;;;;;;;;5022798;28;93673;-84
2023/12/14 04:20:29;;;;;;;5.63;2.60;;;;;;;;;;5017091;27;92622;-82
2023/12/14 04:22:56;;;;;;;6.35;2.75;;;;;;;;;;5003226;28;94714;-83
2023/12/14 04:25:23;;;;;;;6.97;2.70;;;;;;;;;;5019656;28;96957;-83
2023/12/14 04:27:50;;;;;;;6.05;2.63;;;;;;;;;;5003601;28;92933;-82
2023/12/14 04:30:16;;;;;;;7.28;3.08;;;;;;;;;;5004011;28;92507;-82
2023/12/14 04:32:43;;;;;;;7.32;2.90;;;;;;;;;;5021248;28;92161;-83
2023/12/14 04:35:10;;;;;;;6.90;2.97;;;;;;;;;;5031593;27;92680;-83
2023/12/14 04:37:39;;;;;;;6.60;2.78;;;;;;;;;;5044087;27;92697;-83
2023/12/14 04:40:07;;;;;;;7.05;2.85;;;;;;;;;;5006356;28;98784;-83
2023/12/14 04:42:33;;;;;;;;;;;;;;;;;;5032261;27;92091;-84
2023/12/14 04:45:00;;;;;;;7.25;2.80;;;;;;;;;;5043927;27;115995;-83
2023/12/14 04:47:28;;;;;;;9.80;2.88;;;;;;;;;;5024925;28;96852;-83
2023/12/14 04:49:55;;;;;;;9.73;3.60;;;;;;;;;;5044114;27;92140;-83
2023/12/14 04:52:21;;;;;;;9.45;2.80;;;;;;;;;;5042818;27;94804;-83
2023/12/14 04:54:48;;;;;;;7.75;2.95;;;;;;;;;;5041462;27;94875;-84
2023/12/14 04:57:14;;;;;;;8.15;3.05;;;;;;;;;;5046240;27;92374;-83
2023/12/14 04:59:41;;;;;;;7.22;2.63;;;;;;;;;;5038709;28;93621;-84
2023/12/14 05:02:08;;;;;;;5.63;2.30;;;;;;;;;;5002549;28;92106;-83
2023/12/14 05:04:35;;;;;;;6.65;2.40;;;;;;;;;;5027989;28;94828;-82
2023/12/14 05:07:02;;;;;;;6.40;2.60;;;;;;;;;;5038891;28;94147;-83
2023/12/14 05:09:28;;;;;;;6.68;2.50;;;;;;;;;;5018933;28;92099;-84
2023/12/14 05:11:55;;;;;;;11.38;2.50;;;;;;;;;;5015992;28;95187;-85
2023/12/14 05:14:21;;;;;;;8.00;2.92;;;;;;;;;;5003286;28;93237;-84
2023/12/14 05:16:51;;;;;;;7.10;2.60;;;;;;;;;;5003776;28;92047;-85
2023/12/14 05:19:18;;;;;;;7.80;2.50;;;;;;;;;;5022076;28;92763;-85
2023/12/14 05:21:45;;;;;;;6.47;2.50;;;;;;;;;;5018208;28;92571;-85
2023/12/14 05:24:11;;;;;;;9.30;2.40;;;;;;;;;;5018814;28;92744;-84
2023/12/14 05:26:38;;;;;;;6.80;2.35;;;;;;;;;;5001674;28;95280;-84
2023/12/14 05:29:04;;;;;;;5.65;2.42;;;;;;;;;;5011045;28;91534;-84
2023/12/14 05:31:31;;;;;;;5.78;2.33;;;;;;;;;;5023557;27;92518;-85
2023/12/14 05:33:58;;;;;;;6.20;2.45;;;;;;;;;;5020360;28;94794;-85
2023/12/14 05:36:24;;;;;;;6.85;2.28;;;;;;;;;;5016741;28;94872;-83
2023/12/14 05:38:51;;;;;;;5.75;2.20;;;;;;;;;;5018269;28;95028;-82
2023/12/14 05:41:18;;;;;;;5.68;2.40;;;;;;;;;;5024389;28;95667;-82
2023/12/14 05:43:44;;;;;;;6.18;2.40;;;;;;;;;;5020761;27;94570;-82
2023/12/14 05:46:20;;;;;;;5.10;2.22;;;;;;;;;;5022479;27;93315;-82
2023/12/14 05:48:47;;;;;;;9.40;2.10;;;;;;;;;;5021587;28;92558;-82
2023/12/14 05:51:25;;;;;;;7.65;2.45;;;;;;;;;;5022218;27;92461;-82
2023/12/14 05:53:51;;;;;;;6.28;2.28;;;;;;;;;;5020689;27;92053;-81
2023/12/14 05:56:18;;;;;;;7.35;2.47;;;;;;;;;;5020630;28;92138;-82
2023/12/14 05:58:44;;;;;;;6.05;2.20;;;;;;;;;;5021178;28;96355;-83
2023/12/14 06:01:11;;;;;;;5.07;1.85;;;;;;;;;;5018528;28;97570;-83
2023/12/14 06:03:38;;;;;;;5.57;2.20;;;;;;;;;;5024679;28;92023;-82
2023/12/14 06:06:04;;;;;;;6.75;2.25;;;;;;;;;;5041112;28;99467;-82
2023/12/14 06:08:31;;;;;;;5.75;1.98;;;;;;;;;;5041659;28;92448;-81
2023/12/14 06:10:57;;;;;;;6.13;2.15;;;;;;;;;;5041024;28;94646;-82
2023/12/14 06:13:24;;;;;;;5.40;1.98;;;;;;;;;;5041400;28;92742;-81
2023/12/14 06:15:51;;;;;;;5.00;2.00;;;;;;;;;;5041949;27;91998;-82
2023/12/14 06:18:17;;;;;;;6.38;2.10;;;;;;;;;;5041695;28;92478;-82
2023/12/14 06:20:44;;;;;;;5.00;1.95;;;;;;;;;;5024432;28;95025;-82
2023/12/14 06:23:11;;;;;;;4.47;1.77;;;;;;;;;;5041163;28;92288;-83
2023/12/14 06:25:37;;;;;;;5.28;2.00;;;;;;;;;;5008910;28;94896;-82
2023/12/14 06:28:04;;;;;;;4.80;2.00;;;;;;;;;;5004481;28;94328;-81
2023/12/14 06:30:30;;;;;;;5.10;1.80;;;;;;;;;;5032632;28;92814;-82
2023/12/14 06:32:57;;;;;;;4.18;1.90;;;;;;;;;;5026853;28;92639;-82
2023/12/14 06:35:24;;;;;;;5.90;2.10;;;;;;;;;;5017318;28;94441;-81
2023/12/14 06:37:50;;;;;;;5.35;1.90;;;;;;;;;;5016108;28;94746;-82
2023/12/14 06:40:17;;;;;;;5.18;2.20;;;;;;;;;;5020584;28;92710;-81
2023/12/14 06:42:43;;;;;;;6.13;2.30;;;;;;;;;;5022527;28;91312;-81
2023/12/14 06:45:10;;;;;;;5.45;1.90;;;;;;;;;;5022002;28;92073;-80
2023/12/14 06:47:37;;;;;;;4.93;2.00;;;;;;;;;;5008139;28;95300;-82
2023/12/14 06:50:03;;;;;;;5.03;2.05;;;;;;;;;;5020743;28;94494;-82
2023/12/14 06:52:30;;;;;;;4.80;2.03;;;;;;;;;;5024383;28;93062;-83
2023/12/14 06:54:57;;;;;;;4.45;1.90;;;;;;;;;;5034511;28;92314;-83
2023/12/14 06:57:23;;;;;;;5.40;1.98;;;;;;;;;;5027582;28;94839;-83
2023/12/14 06:59:53;;;;;;;5.40;1.95;;;;;;;;;;5032361;27;95755;-84
2023/12/14 07:02:20;;;;;;;4.97;1.92;;;;;;;;;;5040933;27;92062;-83
2023/12/14 07:04:47;;;;;;;4.38;1.90;;;;;;;;;;5041364;28;94072;-83
2023/12/14 07:07:14;;;;;;;5.93;2.15;;;;;;;;;;5037742;28;94140;-83
2023/12/14 07:09:46;;;;;;;5.38;2.10;;;;;;;;;;5007028;28;93868;-84
2023/12/14 07:12:13;;;;;;;4.55;1.90;;;;;;;;;;5020494;28;93106;-84
2023/12/14 07:14:40;;;;;;;5.95;2.05;;;;;;;;;;5004416;28;94400;-85
2023/12/14 07:17:09;;;;;;;4.93;2.10;;;;;;;;;;5004041;28;97589;-84
2023/12/14 07:19:36;;;;;;;6.40;2.22;;;;;;;;;;5004849;28;92621;-83
2023/12/14 07:22:03;;;;;;;6.65;2.30;;;;;;;;;;5020217;28;92511;-83
2023/12/14 07:24:30;;;;;;;4.88;1.90;;;;;;;;;;5003946;28;95494;-84
2023/12/14 07:27:10;;;;;;;5.75;1.98;;;;;;;;;;5005390;28;93261;-84
2023/12/14 07:29:36;;;;;;;5.78;1.98;;;;;;;;;;5023213;28;92111;-84
2023/12/14 07:32:03;;;;;;;4.50;1.98;;;;;;;;;;5041775;27;92038;-84
2023/12/14 07:34:30;;;;;;;4.60;1.85;;;;;;;;;;5024044;28;92270;-84
2023/12/14 07:36:57;;;;;;;6.70;2.00;;;;;;;;;;5024244;28;95137;-83
2023/12/14 07:39:23;;;;;;;4.43;1.90;;;;;;;;;;5038049;27;95133;-83
2023/12/14 07:41:50;;;;;;;4.20;1.80;;;;;;;;;;5045380;27;92199;-83
2023/12/14 07:44:17;;;;;;;4.68;2.03;;;;;;;;;;5044606;27;92783;-83
2023/12/14 07:46:43;;;;;;;6.43;1.83;;;;;;;;;;5045098;27;93008;-82
2023/12/14 07:49:10;;;;;;;5.45;2.00;;;;;;;;;;5043133;27;92308;-83
2023/12/14 07:51:37;;;;;;;5.38;1.90;;;;;;;;;;5048232;27;92254;-83
2023/12/14 07:54:04;;;;;;;5.35;2.00;;;;;;;;;;5044584;27;92391;-83
2023/12/14 07:56:32;;;;;;;4.22;1.90;;;;;;;;;;5046250;27;92894;-83
2023/12/14 07:58:59;;;;;;;5.05;2.00;;;;;;;;;;5042377;27;94236;-82
2023/12/14 08:01:26;;;;;;;4.32;1.90;;;;;;;;;;5022615;28;92462;-82
2023/12/14 08:03:52;;;;;;;5.70;2.10;;;;;;;;;;5022867;27;94565;-83
2023/12/14 08:06:19;;;;;;;5.68;2.15;;;;;;;;;;5006879;28;95188;-81
2023/12/14 08:08:45;;;;;;;5.15;1.98;;;;;;;;;;5022366;28;92268;-83
2023/12/14 08:11:12;;;;;;;6.40;1.90;;;;;;;;;;5022981;28;92170;-79
2023/12/14 08:13:38;;;;;;;5.30;1.77;;;;;;;;;;5026205;28;95054;-79
2023/12/14 08:16:07;;;;;;;4.63;1.70;;;;;;;;;;5022733;28;99328;-80
2023/12/14 08:18:34;;;;;;;5.65;1.73;;;;;;;;;;5024589;27;92727;-82
2023/12/14 08:21:01;;;;;;;5.10;1.70;;;;;;;;;;5025608;27;91870;-81
2023/12/14 08:23:29;;;;;;;2.70;1.38;;;;;;;;;;5023293;28;92228;-81
2023/12/14 08:25:56;;;;;;;3.72;1.35;;;;;;;;;;5022063;27;93611;-81
2023/12/14 08:28:23;;;;;;;4.78;1.60;;;;;;;;;;5029213;27;94621;-82
2023/12/14 08:30:50;;;;;;;3.55;1.33;;;;;;;;;;5034386;27;94868;-82
2023/12/14 08:33:17;;;;;;;4.60;1.33;;;;;;;;;;5022776;28;92674;-81
2023/12/14 08:35:44;;;;;;;8.98;1.40;;;;;;;;;;5041411;27;92208;-84
2023/12/14 08:38:11;;;;;;;4.68;1.20;;;;;;;;;;5006400;28;95233;-82
2023/12/14 08:40:37;;;;;;;4.22;1.13;;;;;;;;;;5020835;28;92097;-83
2023/12/14 08:43:04;;;;;;;3.58;1.20;;;;;;;;;;5004684;28;93214;-84
2023/12/14 08:45:31;;;;;;;3.63;1.52;;;;;;;;;;5023928;28;92195;-83
2023/12/14 08:47:57;;;;;;;2.63;1.10;;;;;;;;;;5003855;28;92546;-84
2023/12/14 08:50:26;;;;;;;2.95;1.05;;;;;;;;;;5007793;27;92979;-83
2023/12/14 08:52:53;;;;;;;2.40;1.00;;;;;;;;;;5021603;28;95280;-85
2023/12/14 08:55:21;;;;;;;3.67;1.33;;;;;;;;;;5023600;28;92137;-84
2023/12/14 08:57:48;;;;;;;5.28;1.13;;;;;;;;;;5026836;28;92358;-84
2023/12/14 09:00:15;;;;;;;3.40;1.20;;;;;;;;;;5006612;28;92185;-84
2023/12/14 09:02:43;;;;;;;3.45;1.20;;;;;;;;;;5024282;28;93136;-83
2023/12/14 09:05:14;;;;;;;2.72;1.08;;;;;;;;;;5031070;28;92883;-84
2023/12/14 09:07:43;;;;;;;2.25;0.90;;;;;;;;;;5022260;27;92083;-85
2023/12/14 09:10:10;;;;;;;2.58;1.17;;;;;;;;;;5022100;27;94941;-84
2023/12/14 09:12:37;;;;;;;3.53;1.10;;;;;;;;;;5024401;27;92745;-83
2023/12/14 09:15:04;;;;;;;2.10;0.90;;;;;;;;;;5023163;27;93253;-85
2023/12/14 09:17:34;;;;;;;1.83;1.00;;;;;;;;;;5005797;28;94861;-84
2023/12/14 09:20:07;;;;;;;3.00;1.00;;;;;;;;;;5018552;27;92121;-84
2023/12/14 09:22:33;;;;;;;1.45;0.90;;;;;;;;;;5023034;28;92439;-87
2023/12/14 09:25:00;;;;;;;1.83;1.00;;;;;;;;;;5022869;28;92662;-87
2023/12/14 09:27:27;;;;;;;2.63;1.10;;;;;;;;;;5022816;27;92162;-86
2023/12/14 09:29:54;;;;;;;2.30;1.05;;;;;;;;;;5021968;27;92946;-86
2023/12/14 09:32:20;;;;;;;1.73;0.98;;;;;;;;;;5024276;27;92663;-83
2023/12/14 09:34:47;;;;;;;3.22;1.20;;;;;;;;;;5024117;27;91256;-83
2023/12/14 09:37:14;;;;;;;3.13;1.10;;;;;;;;;;5022522;28;94049;-83
2023/12/14 09:39:40;;;;;;;2.40;1.20;;;;;;;;;;5016285;27;95574;-84
2023/12/14 09:42:10;;;;;;;4.10;1.15;;;;;;;;;;5017706;28;94549;-85
2023/12/14 09:44:37;;;;;;;3.25;1.05;;;;;;;;;;5023488;28;92720;-83
2023/12/14 09:47:04;;;;;;;;;;;;;;;;;;5023740;28;92105;-80
2023/12/14 09:49:32;;;;;;;5.00;1.67;;;;;;;;;;5024811;28;102263;-82
2023/12/14 09:51:59;;;;;;;3.25;1.10;;;;;;;;;;5020949;28;93364;-81
2023/12/14 09:54:26;;;;;;;2.80;1.15;;;;;;;;;;5022215;28;92101;-82
2023/12/14 09:56:53;;;;;;;4.88;1.48;;;;;;;;;;5004670;28;95153;-82
2023/12/14 09:59:20;;;;;;;2.67;1.10;;;;;;;;;;5022281;28;94830;-82
2023/12/14 10:01:47;;;;;;;3.83;1.10;;;;;;;;;;5024690;27;92163;-83
2023/12/14 10:04:14;;;;;;;5.30;1.13;;;;;;;;;;5027811;27;92995;-82
2023/12/14 10:06:42;;;;;;;4.35;1.65;;;;;;;;;;5033150;27;94682;-82
2023/12/14 10:09:09;;;;;;;3.40;1.40;;;;;;;;;;5004809;28;97011;-81
2023/12/14 10:11:36;;;;;;;5.45;1.40;;;;;;;;;;5021845;28;92632;-82
2023/12/14 10:14:17;;;;;;;3.33;1.27;;;;;;;;;;5020826;27;92872;-84
2023/12/14 10:16:43;;;;;;;4.80;1.50;;;;;;;;;;5020625;28;94656;-83
2023/12/14 10:19:10;;;;;;;4.70;1.40;;;;;;;;;;5023572;28;92636;-83
2023/12/14 10:21:37;;;;;;;3.58;1.38;;;;;;;;;;5021709;28;92522;-83
2023/12/14 10:24:04;;;;;;;3.85;1.40;;;;;;;;;;5041774;27;92292;-83
2023/12/14 10:26:31;;;;;;;5.55;1.50;;;;;;;;;;5041950;28;92280;-82
2023/12/14 10:28:57;;;;;;;4.32;1.33;;;;;;;;;;5041490;27;92839;-82
2023/12/14 10:31:25;;;;;;;4.38;1.40;;;;;;;;;;5040190;28;97729;-83
2023/12/14 10:33:52;;;;;;;4.47;1.30;;;;;;;;;;5005360;27;92125;-82
2023/12/14 10:36:22;;;;;;;5.40;1.40;;;;;;;;;;5021607;28;93297;-83
2023/12/14 10:38:52;;;;;;;5.68;1.40;;;;;;;;;;5020889;28;92601;-83
2023/12/14 10:41:19;;;;;;;6.72;1.52;;;;;;;;;;5020957;28;92200;-82
2023/12/14 10:43:47;;;;;;;5.65;1.50;;;;;;;;;;5018244;28;95073;-82
2023/12/14 10:46:19;;;;;;;;;;;;;;;;;;5026503;28;92691;-81
2023/12/14 10:48:50;;;;;;;6.95;1.40;;;;;;;;;;5021768;28;99977;-84
2023/12/14 10:51:18;;;;;;;3.95;1.20;;;;;;;;;;5021915;28;92682;-82
2023/12/14 10:53:48;;;;;;;5.40;1.42;;;;;;;;;;5018549;28;92571;-83
2023/12/14 10:56:16;;;;;;;5.70;1.30;;;;;;;;;;5019517;28;95108;-82
2023/12/14 10:58:56;;;;;;;5.72;1.10;;;;;;;;;;5021041;27;92482;-83
2023/12/14 11:01:24;;;;;;;;;;;;;;;;;;5017301;28;92425;-82
2023/12/14 11:03:58;;;;;;;7.20;1.40;;;;;;;;;;5017916;28;104538;-82
2023/12/14 11:06:27;;;;;;;3.35;1.17;;;;;;;;;;5017309;28;93692;-83
2023/12/14 11:08:55;;;;;;;4.28;1.40;;;;;;;;;;5022152;28;92581;-83
2023/12/14 11:11:22;;;;;;;4.95;1.40;;;;;;;;;;5018084;28;93493;-84
2023/12/14 11:13:52;;;;;;;5.47;1.30;;;;;;;;;;5019825;28;91494;-84
2023/12/14 11:16:23;;;;;;;6.38;1.27;;;;;;;;;;5022211;28;93789;-84
2023/12/14 11:19:09;;;;;;;4.75;1.20;;;;;;;;;;5020591;28;95252;-86
2023/12/14 11:21:39;;;;;;;2.75;1.10;;;;;;;;;;5020063;28;94411;-86
2023/12/14 11:24:05;;;;;;;4.88;1.20;;;;;;;;;;5029171;27;99004;-86
2023/12/14 11:26:32;;;;;;;4.50;1.40;;;;;;;;;;5020338;28;94979;-83
2023/12/14 11:28:59;;;;;;;2.50;1.10;;;;;;;;;;5023849;28;92177;-85
2023/12/14 11:31:27;;;;;;;4.97;1.20;;;;;;;;;;5021198;28;93058;-87
2023/12/14 11:33:57;;;;;;;4.13;1.17;;;;;;;;;;5021553;27;92246;-85
2023/12/14 11:36:25;;;;;;;2.78;1.13;;;;;;;;;;5043350;27;92232;-85
2023/12/14 11:38:54;;;;;;;4.00;1.35;;;;;;;;;;5044976;27;94745;-85
2023/12/14 11:41:21;;;;;;;2.67;1.20;;;;;;;;;;5044492;27;92230;-87
2023/12/14 11:43:48;;;;;;;5.00;1.30;;;;;;;;;;5027842;27;95497;-83
2023/12/14 11:46:15;;;;;;;3.60;1.27;;;;;;;;;;5042892;27;95143;-83
2023/12/14 11:48:42;;;;;;;;;;;;;;;;;;5043528;27;92325;-81
2023/12/14 11:51:09;;;;;;;3.28;1.10;;;;;;;;;;5053669;27;93013;-80
2023/12/14 11:53:38;;;;;;;2.60;1.17;;;;;;;;;;5027634;28;91990;-80
2023/12/14 11:56:06;;;;;;;3.05;1.23;;;;;;;;;;5042808;27;97019;-81
2023/12/14 11:58:36;;;;;;;6.13;1.42;;;;;;;;;;5042839;27;94746;-79
2023/12/14 12:01:17;;;;;;;4.00;1.15;;;;;;;;;;5014020;28;92086;-80
2023/12/14 12:03:44;;;;;;;4.20;1.25;;;;;;;;;;5024194;27;92736;-80
2023/12/14 12:06:19;;;;;;;3.90;1.15;;;;;;;;;;5024473;28;92600;-80
2023/12/14 12:08:47;;;;;;;4.10;1.00;;;;;;;;;;5023650;28;92829;-80
2023/12/14 12:11:21;;;;;;;3.60;1.23;;;;;;;;;;5002352;28;95065;-80
2023/12/14 12:13:52;;;;;;;4.57;1.10;;;;;;;;;;5039868;28;92717;-79
2023/12/14 12:16:19;;;;;;;3.28;1.20;;;;;;;;;;5021255;28;94865;-80
2023/12/14 12:18:45;;;;;;;3.22;1.15;;;;;;;;;;5022866;27;93489;-79
2023/12/14 12:21:12;;;;;;;4.20;1.40;;;;;;;;;;5036894;27;92844;-80
2023/12/14 12:23:39;;;;;;;1.98;1.20;;;;;;;;;;5020932;28;92838;-80
2023/12/14 12:26:06;;;;;;;2.45;1.00;;;;;;;;;;5040704;27;97445;-80
2023/12/14 12:28:32;;;;;;;2.88;1.20;;;;;;;;;;5040663;27;91843;-79
2023/12/14 12:30:59;;;;;;;3.65;1.20;;;;;;;;;;5041340;27;92332;-80
2023/12/14 12:33:26;;;;;;;2.92;1.20;;;;;;;;;;5041299;27;93633;-79
2023/12/14 12:35:54;;;;;;;3.10;1.10;;;;;;;;;;5043047;27;94802;-80
2023/12/14 12:38:21;;;;;;;3.58;1.40;;;;;;;;;;5040938;27;92280;-80
2023/12/14 12:40:48;;;;;;;3.55;1.30;;;;;;;;;;5034300;27;92282;-81
2023/12/14 12:43:14;;;;;;;2.42;1.10;;;;;;;;;;5022728;27;92619;-80
2023/12/14 12:45:41;;;;;;;3.17;1.17;;;;;;;;;;5020309;28;93395;-80
2023/12/14 12:48:08;;;;;;;3.03;1.20;;;;;;;;;;5021700;28;92214;-81
2023/12/14 12:50:35;;;;;;;;;;;;;;;;;;5003328;28;94960;-80
2023/12/14 12:53:02;;;;;;;2.22;1.08;;;;;;;;;;5022063;28;94310;-80
2023/12/14 12:55:28;;;;;;;2.45;1.00;;;;;;;;;;5020950;28;92502;-80
2023/12/14 12:57:55;;;;;;;2.40;1.10;;;;;;;;;;5026091;28;92442;-81
2023/12/14 13:00:22;;;;;;;5.07;1.23;;;;;;;;;;5019562;28;94982;-80
2023/12/14 13:02:49;;;;;;;2.53;1.10;;;;;;;;;;5004052;28;97864;-80
2023/12/14 13:05:17;;;;;;;2.13;1.10;;;;;;;;;;5022321;28;93214;-80
2023/12/14 13:07:45;;;;;;;2.60;1.00;;;;;;;;;;5020927;27;92602;-80
2023/12/14 13:10:12;;;;;;;2.15;1.00;;;;;;;;;;5021596;27;92589;-85
2023/12/14 13:12:55;;;;;;;2.05;1.10;;;;;;;;;;5021500;28;92730;-79
2023/12/14 13:15:24;;;;;;;;;;;;;;;;;;5019733;28;93104;-80
2023/12/14 13:17:51;;;;;;;3.05;1.20;;;;;;;;;;5019963;27;99789;-80
2023/12/14 13:20:19;;;;;;;1.98;1.13;;;;;;;;;;5019372;28;92174;-81
2023/12/14 13:22:46;;;;;;;2.17;1.10;;;;;;;;;;5003548;28;94933;-81
2023/12/14 13:25:14;;;;;;;2.67;1.20;;;;;;;;;;5027675;28;95168;-82
2023/12/14 13:27:41;;;;;;;2.22;1.20;;;;;;;;;;5019896;27;92362;-83
2023/12/14 13:30:08;;;;;;;;;;;;;;;;;;5002481;28;95723;-79
2023/12/14 13:32:35;;;;;;;3.42;1.40;;;;;;;;;;5022764;27;114168;-82
2023/12/14 13:35:02;;;;;;;2.67;1.20;;;;;;;;;;5018031;28;92218;-81
2023/12/14 13:37:29;;;;;;;2.75;1.23;;;;;;;;;;5020761;27;92217;-80
2023/12/14 13:39:56;;;;;;;2.63;1.20;;;;;;;;;;5022348;27;92958;-80
2023/12/14 13:42:23;;;;;;;2.63;1.25;;;;;;;;;;5026553;28;92490;-79
2023/12/14 13:44:50;;;;;;;2.85;1.30;;;;;;;;;;5035997;27;93894;-79
2023/12/14 13:47:17;;;;;;;4.40;1.30;;;;;;;;;;5038845;28;92249;-79
2023/12/14 13:49:44;;;;;;;2.38;1.25;;;;;;;;;;5036745;27;94964;-80
2023/12/14 13:52:11;;;;;;;;;;;;;;;;;;5040866;27;92989;-79
2023/12/14 13:54:38;;;;;;;2.72;1.40;;;;;;;;;;5035222;27;92187;-78
2023/12/14 13:57:04;;;;;;;2.88;1.25;;;;;;;;;;5001503;28;93606;-77
2023/12/14 13:59:31;;;;;;;3.00;1.25;;;;;;;;;;5014336;28;92427;-79
2023/12/14 14:01:58;;;;;;;2.53;1.23;;;;;;;;;;5002972;28;92774;-79
2023/12/14 14:04:25;;;;;;;4.18;1.38;;;;;;;;;;4999219;28;95071;-81
2023/12/14 14:06:53;;;;;;;2.50;1.30;;;;;;;;;;5008414;28;91323;-78
2023/12/14 14:09:20;;;;;;;4.13;1.63;;;;;;;;;;5007148;28;92462;-78
2023/12/14 14:11:49;;;;;;;5.78;1.67;;;;;;;;;;5016330;27;93238;-79
2023/12/14 14:14:16;;;;;;;3.97;1.67;;;;;;;;;;5038098;27;94547;-78
2023/12/14 14:16:43;;;;;;;3.65;1.60;;;;;;;;;;5039218;28;95208;-78
2023/12/14 14:19:10;;;;;;;;;;;;;;;;;;5038487;28;94863;-79
2023/12/14 14:21:36;;;;;;;2.88;1.48;;;;;;;;;;5041596;27;109148;-80
2023/12/14 14:24:03;;;;;;;3.08;1.60;;;;;;;;;;5041005;27;92397;-79
2023/12/14 14:26:30;;;;;;;4.05;1.70;;;;;;;;;;5037875;27;92449;-79
2023/12/14 14:29:01;;;;;;;4.47;1.77;;;;;;;;;;5039894;27;92410;-79
2023/12/14 14:31:32;;;;;;;4.35;1.65;;;;;;;;;;5038888;27;92053;-78
2023/12/14 14:34:02;;;;;;;3.72;1.55;;;;;;;;;;5036281;27;95891;-80
2023/12/14 14:36:28;;;;;;;5.68;1.98;;;;;;;;;;5039146;27;93962;-81
2023/12/14 14:38:56;;;;;;;7.38;1.70;;;;;;;;;;5037556;27;95651;-84
2023/12/14 14:41:24;;;;;;;5.90;1.80;;;;;;;;;;5038967;27;92437;-83
2023/12/14 14:43:51;;;;;;;6.47;1.88;;;;;;;;;;5038807;27;92876;-84
2023/12/14 14:46:19;;;;;;;5.28;1.65;;;;;;;;;;5019433;28;95221;-83